Time;durP1;ratioP1;P1;durP2;ratioP2;P2;SDS_P1;SDS_P2;PMS_P1;PMS_P2;Temp;Humidity;BMP_temperature;BMP_pressure;BME280_temperature;BME280_humidity;BME280_pressure;Samples;Min_cycle;Max_cycle;Signal;HPM_P1;HPM_P2
2022/04/03 00:12:10;;;;;;;71.13;16.88;;;;;;;1.39;58.26;100014.66;739882;1154;114781;-71
2022/04/03 00:27:12;;;;;;;54.55;14.70;;;;;;;1.31;58.36;100014.25;738908;1154;115444;-71
2022/04/03 00:42:14;;;;;;;31.75;9.85;;;;;;;1.23;58.19;100006.91;739205;1155;114442;-70
2022/04/03 00:57:19;;;;;;;35.98;10.50;;;;;;;1.11;58.59;100018.73;739493;1155;115436;-75
2022/04/03 01:12:21;;;;;;;21.58;7.73;;;;;;;1.03;58.92;100026.05;739332;1154;115975;-71
2022/04/03 01:27:43;;;;;;;12.13;4.97;;;;;;;1.00;59.40;100018.45;739933;1155;115586;-71
2022/04/03 01:42:46;;;;;;;39.98;10.73;;;;;;;0.98;59.67;100012.55;739317;1155;115122;-71
2022/04/03 01:57:48;;;;;;;38.03;11.43;;;;;;;1.04;59.38;100017.37;739005;1155;115630;-72
2022/04/03 02:12:50;;;;;;;28.08;7.83;;;;;;;1.12;60.35;100033.33;738788;1155;115943;-72
2022/04/03 02:27:53;;;;;;;15.60;6.73;;;;;;;1.31;59.84;100033.17;739174;1155;115502;-71
2022/04/03 02:42:55;;;;;;;21.85;9.50;;;;;;;1.62;59.65;100039.28;739866;1155;115470;-71
2022/04/03 02:57:57;;;;;;;41.20;13.28;;;;;;;1.76;60.17;100037.69;738647;1155;115219;-70
2022/04/03 03:12:59;;;;;;;61.18;19.15;;;;;;;1.96;59.74;100052.09;738842;1154;115371;-71
2022/04/03 03:28:01;;;;;;;49.08;19.05;;;;;;;2.19;59.67;100053.40;738812;1153;115050;-71
2022/04/03 03:43:04;;;;;;;14.25;6.23;;;;;;;2.29;59.79;100045.92;739187;1155;114193;-70
2022/04/03 03:58:07;;;;;;;10.20;5.95;;;;;;;2.34;59.72;100056.86;739395;1154;115284;-72
2022/04/03 04:13:09;;;;;;;9.98;4.03;;;;;;;2.37;59.43;100063.61;740439;1155;115321;-71
2022/04/03 04:28:12;;;;;;;12.40;5.10;;;;;;;2.45;58.67;100059.64;739249;1155;115051;-71
2022/04/03 04:43:14;;;;;;;6.10;3.83;;;;;;;2.50;57.92;100077.52;740640;1155;115274;-71
2022/04/03 04:58:16;;;;;;;8.48;3.90;;;;;;;2.62;56.65;100081.98;739012;1155;115071;-72
2022/04/03 05:13:21;;;;;;;11.33;4.55;;;;;;;2.73;55.56;100094.33;740696;1154;113884;-70
2022/04/03 05:28:23;;;;;;;22.78;8.10;;;;;;;2.91;54.92;100100.17;739006;1154;115314;-71
2022/04/03 05:43:26;;;;;;;18.85;7.40;;;;;;;3.06;53.75;100108.81;739342;1155;114812;-75
2022/04/03 05:58:28;;;;;;;12.33;4.60;;;;;;;3.32;52.78;100112.41;740354;1155;115405;-82
2022/04/03 06:13:30;;;;;;;8.75;4.23;;;;;;;3.47;52.64;100126.22;740738;1155;115055;-80
2022/04/03 06:28:33;;;;;;;33.65;14.00;;;;;;;3.82;52.18;100136.17;740945;1155;114976;-71
2022/04/03 06:43:35;;;;;;;22.85;9.38;;;;;;;4.18;51.98;100136.55;740521;1154;115289;-76
2022/04/03 06:58:37;;;;;;;11.73;7.15;;;;;;;4.58;51.60;100144.39;740047;1154;114624;-78
2022/04/03 07:13:39;;;;;;;23.28;9.43;;;;;;;4.66;50.37;100160.30;740084;1155;114335;-71
2022/04/03 07:28:41;;;;;;;27.58;8.05;;;;;;;4.77;50.04;100172.59;739543;1155;115488;-72
2022/04/03 07:43:43;;;;;;;20.68;6.90;;;;;;;6.74;48.56;100166.86;740274;1155;114385;-71
2022/04/03 07:58:46;;;;;;;18.45;7.10;;;;;;;6.30;46.90;100176.98;739886;1155;114116;-71
2022/04/03 08:13:48;;;;;;;18.57;10.50;;;;;;;6.15;46.28;100184.95;739490;1155;115292;-72
2022/04/03 08:28:51;;;;;;;137.45;53.25;;;;;;;6.27;45.55;100192.84;739579;1153;116035;-72
2022/04/03 08:43:53;;;;;;;22.75;10.78;;;;;;;6.30;45.06;100197.83;739580;1155;114713;-72
2022/04/03 08:58:55;;;;;;;10.47;6.07;;;;;;;7.54;45.43;100193.95;739626;1154;116014;-71
2022/04/03 09:13:57;;;;;;;7.58;3.08;;;;;;;8.13;42.02;100204.13;739680;1155;113953;-81
2022/04/03 09:29:18;;;;;;;9.48;4.00;;;;;;;9.91;41.76;100186.92;740029;1155;114645;-82
2022/04/03 09:44:25;;;;;;;16.13;4.87;;;;;;;10.72;40.43;100183.33;740067;1154;114755;-82
2022/04/03 09:59:27;;;;;;;7.45;4.00;;;;;;;8.88;39.00;100169.44;739806;1154;114114;-80
2022/04/03 10:14:30;;;;;;;38.93;15.50;;;;;;;9.66;39.45;100175.11;739926;1155;115579;-82
2022/04/03 10:29:36;;;;;;;217.95;71.38;;;;;;;10.27;38.68;100163.67;739599;1155;114904;-76
2022/04/03 10:44:38;;;;;;;261.30;87.68;;;;;;;11.10;37.95;100152.75;739864;1154;115990;-80
2022/04/03 10:59:41;;;;;;;264.38;88.50;;;;;;;10.22;37.93;100149.33;739220;1154;116004;-73
2022/04/03 11:14:55;;;;;;;26.20;13.70;;;;;;;10.68;37.64;100153.09;739407;1155;115764;-74
2022/04/03 11:30:00;;;;;;;8.20;4.43;;;;;;;10.35;37.02;100156.91;740072;1155;114985;-74
2022/04/03 11:45:07;;;;;;;8.63;4.25;;;;;;;10.34;36.20;100145.59;739529;1155;114524;-74
2022/04/03 12:00:10;;;;;;;5.15;2.38;;;;;;;12.56;36.70;100137.17;739765;1155;113995;-74
2022/04/03 12:15:13;;;;;;;25.30;8.58;;;;;;;10.35;36.21;100128.94;739981;1155;114829;-74
2022/04/03 12:30:16;;;;;;;8.33;4.03;;;;;;;10.54;37.77;100127.28;740146;1154;114663;-74
2022/04/03 12:45:20;;;;;;;11.28;4.63;;;;;;;12.58;37.70;100119.45;739749;1155;115309;-77
2022/04/03 13:00:25;;;;;;;17.73;6.20;;;;;;;11.82;36.69;100091.75;739713;1154;115064;-73
2022/04/03 13:15:28;;;;;;;13.57;5.07;;;;;;;11.57;36.01;100080.14;739875;1154;115225;-74
2022/04/03 13:30:34;;;;;;;13.43;5.20;;;;;;;10.80;36.62;100064.55;739639;1155;115260;-74
2022/04/03 13:46:00;;;;;;;11.43;5.95;;;;;;;11.05;37.49;100049.16;739831;1154;115325;-76
2022/04/03 14:01:05;;;;;;;91.53;24.77;;;;;;;9.82;37.04;100044.44;739978;1154;114513;-76
2022/04/03 14:16:08;;;;;;;43.85;19.58;;;;;;;9.42;37.87;100031.40;739789;1155;114943;-76
2022/04/03 14:31:11;;;;;;;76.43;38.80;;;;;;;12.64;37.15;100020.63;739571;1155;114491;-72
2022/04/03 14:46:14;;;;;;;39.30;16.30;;;;;;;12.97;36.39;100011.13;739699;1155;115676;-77
2022/04/03 15:01:18;;;;;;;86.73;32.33;;;;;;;10.68;36.54;100007.95;740160;1154;115199;-75
2022/04/03 15:16:21;;;;;;;48.53;17.95;;;;;;;9.42;38.57;100011.30;739672;1155;116127;-76
2022/04/03 15:31:23;;;;;;;31.50;15.73;;;;;;;8.57;39.93;100002.83;739706;1154;114813;-75
2022/04/03 15:46:26;;;;;;;10.03;5.77;;;;;;;7.92;41.65;100005.52;739861;1155;114737;-71
2022/04/03 16:01:28;;;;;;;10.10;5.20;;;;;;;12.17;40.53;100005.17;740583;1155;115222;-74
2022/04/03 16:16:31;;;;;;;33.75;13.78;;;;;;;8.83;40.04;100011.09;739620;1155;114511;-73
2022/04/03 16:31:33;;;;;;;36.63;19.18;;;;;;;7.74;42.57;100027.91;740096;1154;114657;-73
2022/04/03 16:46:37;;;;;;;45.63;18.83;;;;;;;7.48;43.65;100029.03;739327;1155;115419;-77
2022/04/03 17:01:40;;;;;;;22.30;11.20;;;;;;;6.98;44.02;100033.79;739480;1154;115920;-72
2022/04/03 17:16:42;;;;;;;22.68;8.68;;;;;;;6.68;44.88;100024.78;739854;1154;115002;-72
2022/04/03 17:31:46;;;;;;;13.95;5.73;;;;;;;6.33;45.15;100039.52;739704;1155;114891;-71
2022/04/03 17:46:52;;;;;;;42.28;18.08;;;;;;;6.10;45.47;100045.58;741429;1154;115064;-72
2022/04/03 18:02:01;;;;;;;51.23;17.47;;;;;;;5.88;45.33;100057.51;740462;1155;114696;-76
2022/04/03 18:17:06;;;;;;;51.30;15.33;;;;;;;5.59;45.64;100059.59;739837;1155;114769;-76
2022/04/03 18:32:08;;;;;;;47.25;17.35;;;;;;;5.14;46.70;100058.32;740052;1155;115208;-75
2022/04/03 18:47:13;;;;;;;50.58;16.15;;;;;;;4.78;47.24;100067.70;740465;1155;115140;-75
2022/04/03 19:02:16;;;;;;;13.08;6.48;;;;;;;4.57;46.94;100076.94;739886;1155;115819;-71
2022/04/03 19:17:20;;;;;;;53.93;18.80;;;;;;;4.22;48.21;100075.70;740456;1154;114155;-72
2022/04/03 19:32:23;;;;;;;64.30;23.08;;;;;;;3.62;47.99;100077.74;740599;1154;115712;-72
2022/04/03 19:47:27;;;;;;;164.43;46.87;;;;;;;3.57;48.10;100072.00;740308;1154;115882;-72
2022/04/03 20:02:29;;;;;;;92.50;28.05;;;;;;;3.35;48.87;100072.49;740609;1155;115940;-72
2022/04/03 20:17:34;;;;;;;28.35;11.15;;;;;;;3.21;48.59;100065.58;740576;1154;113869;-73
2022/04/03 20:32:37;;;;;;;31.58;10.53;;;;;;;3.04;49.28;100060.58;740718;1155;115868;-73
2022/04/03 20:47:39;;;;;;;27.53;8.98;;;;;;;2.94;48.90;100052.51;740405;1155;114405;-73
2022/04/03 21:02:42;;;;;;;15.35;6.45;;;;;;;2.67;49.68;100048.05;740280;1154;115651;-73
2022/04/03 21:17:44;;;;;;;32.08;10.93;;;;;;;2.31;50.49;100046.69;740996;1155;114557;-73
2022/04/03 21:32:50;;;;;;;29.40;11.85;;;;;;;2.21;50.49;100041.19;740224;1155;115939;-73
2022/04/03 21:47:53;;;;;;;10.08;4.98;;;;;;;2.33;51.10;100030.11;740870;1153;115749;-72
2022/04/03 22:02:55;;;;;;;13.05;5.58;;;;;;;2.16;51.73;100020.76;740972;1153;114898;-72
2022/04/03 22:17:57;;;;;;;17.20;6.40;;;;;;;2.05;51.84;100007.58;740074;1155;115345;-73
2022/04/03 22:33:00;;;;;;;15.63;6.48;;;;;;;1.88;51.83;99997.36;739882;1153;115529;-72
2022/04/03 22:48:03;;;;;;;15.97;6.63;;;;;;;1.87;52.72;99985.34;742587;1155;115148;-73
2022/04/03 23:03:05;;;;;;;11.65;5.33;;;;;;;2.06;52.33;99964.41;740482;1155;115296;-73
2022/04/03 23:18:07;;;;;;;12.88;5.15;;;;;;;2.21;52.35;99952.36;740722;1155;115582;-73
2022/04/03 23:33:09;;;;;;;11.93;5.58;;;;;;;2.41;51.74;99948.59;739496;1155;115526;-73
2022/04/03 23:48:11;;;;;;;11.88;5.40;;;;;;;2.43;51.60;99906.14;738799;1155;114752;-73
